Terminal Aerodrome Forecast
Issued by NWS

Home | Current Version | Previous Version | Graphics & Text | Print | Product List | Glossary On
Versions: 1 2 3 4 5 6 7 8 9 10 11 12 13 14 15 16 17
000
FTUS42 KMHX 220900 AAA
TAFPGV
TAF AMD
KPGV 220929Z 2209/2306 00000KT 2SM BR SCT004 SCT200
      TEMPO 2209/2212 1/4SM FZFG OVC003
     FM221300 32006KT P6SM SCT200
      AMD LTD TO CLD VIS AND WIND=

USA.gov is the U.S. government's official web portal to all federal, state and local government web resources and services.